Rockford, North Carolina
Current Conditions -  °F | °C
As of 3:35 AM on Saturday 01 Nov 2014 (Local Time) from KMWK Reporting Station
Moderate Rain Moderate Rain  
Wind Chill: 43°   Ceiling: 3700
Heat Index: 43°   Visibility: 10mi
Dew Point: 40°   Wind: 0mph
Humidity: 90%   Direction: NA
Pressure: 29.76"   Gusts: NA
Location:  36.3461°N, 80.7011°W
Report Text: KMWK 010735Z AUTO 00000KT 10SM RA OVC037 06/05 A2976 RMK AO2 P0002 T00620047
Loading
Personal Weather Stations






























Interactive Weather Map
Tropical Storm Tracking
New forecast layout! Learn more

10-Day Weather Forecast

Advertisements
Track Severe Weather on mobile